createdAt,value
2018-12-06T00:00:12.417Z,4.89
2018-12-06T00:01:12.361Z,4.93
2018-12-06T00:02:12.307Z,4.90
2018-12-06T00:03:12.322Z,4.89
2018-12-06T00:04:12.186Z,4.90
2018-12-06T00:05:12.129Z,4.94
2018-12-06T00:06:12.073Z,4.90
2018-12-06T00:07:12.016Z,4.94
2018-12-06T00:08:11.987Z,4.93
2018-12-06T00:09:11.898Z,4.97
2018-12-06T00:10:11.841Z,4.86
2018-12-06T00:11:11.783Z,4.96
2018-12-06T00:12:11.757Z,4.92
2018-12-06T00:13:11.668Z,4.84
2018-12-06T00:14:11.611Z,4.87
2018-12-06T00:15:11.553Z,4.92
2018-12-06T00:16:11.526Z,4.92
2018-12-06T00:17:11.437Z,4.93
2018-12-06T00:18:11.415Z,4.93
2018-12-06T00:19:11.324Z,4.93
2018-12-06T00:20:11.268Z,4.93
2018-12-06T00:21:11.240Z,4.84
2018-12-06T00:22:11.149Z,4.89
2018-12-06T00:23:11.090Z,4.93
2018-12-06T00:24:11.031Z,4.84
2018-12-06T00:25:11.013Z,4.82
2018-12-06T00:26:10.918Z,4.78
2018-12-06T00:27:10.861Z,4.80
2018-12-06T00:28:10.801Z,4.84
2018-12-06T00:29:10.744Z,4.80
2018-12-06T00:30:10.737Z,4.80
2018-12-06T00:31:10.631Z,4.80
2018-12-06T00:32:10.573Z,4.78
2018-12-06T00:33:10.513Z,4.84
2018-12-06T00:34:10.456Z,4.84
2018-12-06T00:35:10.444Z,4.87
2018-12-06T00:36:10.344Z,4.82
2018-12-06T00:37:10.284Z,4.89
2018-12-06T00:38:10.227Z,4.77
2018-12-06T00:39:10.170Z,4.78
2018-12-06T00:40:10.149Z,4.90
2018-12-06T00:41:10.053Z,4.77
2018-12-06T00:42:10.004Z,4.86
2018-12-06T00:43:09.949Z,4.80
2018-12-06T00:44:09.878Z,4.84
2018-12-06T00:45:09.867Z,4.87
2018-12-06T00:46:09.764Z,4.80
2018-12-06T00:47:09.706Z,4.86
2018-12-06T00:48:09.647Z,4.84
2018-12-06T00:49:09.593Z,4.92
2018-12-06T00:50:09.565Z,4.87
2018-12-06T00:51:09.515Z,4.84
2018-12-06T00:52:09.417Z,4.78
2018-12-06T00:53:09.360Z,4.84
2018-12-06T00:54:09.301Z,4.86
2018-12-06T00:55:09.245Z,4.87
2018-12-06T00:56:09.226Z,4.82
2018-12-06T00:57:09.131Z,4.75
2018-12-06T00:58:09.070Z,4.74
2018-12-06T00:59:09.013Z,4.75
2018-12-06T01:00:08.955Z,4.82
2018-12-06T01:01:08.952Z,4.67
2018-12-06T01:02:08.843Z,4.71
2018-12-06T01:03:08.787Z,4.75
2018-12-06T01:04:08.726Z,4.70
2018-12-06T01:05:08.669Z,4.74
2018-12-06T01:06:08.649Z,4.68
2018-12-06T01:07:08.553Z,4.73
2018-12-06T01:08:08.495Z,4.70
2018-12-06T01:09:08.462Z,4.73
2018-12-06T01:10:08.379Z,4.71
2018-12-06T01:11:08.355Z,4.74
2018-12-06T01:12:08.297Z,4.56
2018-12-06T01:13:08.204Z,4.74
2018-12-06T01:14:08.152Z,4.56
2018-12-06T01:15:08.091Z,4.58
2018-12-06T01:16:08.032Z,4.59
2018-12-06T01:17:08.014Z,4.62
2018-12-06T01:18:07.949Z,4.62
2018-12-06T01:19:07.892Z,4.68
2018-12-06T01:20:07.804Z,4.71
2018-12-06T01:21:07.744Z,4.70
2018-12-06T01:22:07.688Z,4.67
2018-12-06T01:23:07.673Z,4.71
2018-12-06T01:24:07.574Z,4.68
2018-12-06T01:25:07.512Z,4.67
2018-12-06T01:26:07.458Z,4.68
2018-12-06T01:27:07.398Z,4.67
2018-12-06T01:28:07.379Z,4.63
2018-12-06T01:29:07.283Z,4.71
2018-12-06T01:30:07.225Z,4.71
2018-12-06T01:31:07.166Z,4.70
2018-12-06T01:32:07.113Z,4.71
2018-12-06T01:33:07.090Z,4.73
2018-12-06T01:34:06.996Z,4.77
2018-12-06T01:35:06.936Z,4.74
2018-12-06T01:36:06.878Z,4.73
2018-12-06T01:37:06.821Z,4.67
2018-12-06T01:38:06.797Z,4.71
2018-12-06T01:39:06.702Z,4.68
2018-12-06T01:40:06.670Z,4.70
2018-12-06T01:41:06.590Z,4.71
2018-12-06T01:42:06.532Z,4.77
2018-12-06T01:43:06.474Z,4.68
2018-12-06T01:44:06.416Z,4.77
2018-12-06T01:45:06.393Z,4.74
2018-12-06T01:46:06.302Z,4.67
2018-12-06T01:47:06.241Z,4.63
2018-12-06T01:48:06.183Z,4.71
2018-12-06T01:49:06.130Z,4.71
2018-12-06T01:50:06.099Z,4.68
2018-12-06T01:51:06.010Z,4.70
2018-12-06T01:52:05.954Z,4.75
2018-12-06T01:53:05.895Z,4.71
2018-12-06T01:54:05.837Z,4.63
2018-12-06T01:55:05.812Z,4.63
2018-12-06T01:56:05.743Z,4.56
2018-12-06T01:57:05.661Z,4.56
2018-12-06T01:58:05.606Z,4.62
2018-12-06T01:59:05.553Z,4.56
2018-12-06T02:00:05.524Z,4.49
2018-12-06T02:01:05.430Z,4.52
2018-12-06T02:02:05.373Z,4.56
2018-12-06T02:03:05.319Z,4.58
2018-12-06T02:04:05.258Z,4.56
2018-12-06T02:05:05.232Z,4.52
2018-12-06T02:06:05.144Z,4.50
2018-12-06T02:07:05.114Z,4.56
2018-12-06T02:08:05.027Z,4.56
2018-12-06T02:09:04.976Z,4.56
2018-12-06T02:10:04.909Z,4.45
2018-12-06T02:11:04.902Z,4.48
2018-12-06T02:12:04.793Z,4.49
2018-12-06T02:13:04.738Z,4.52
2018-12-06T02:14:04.687Z,4.55
2018-12-06T02:15:04.620Z,4.52
2018-12-06T02:16:04.595Z,4.58
2018-12-06T02:17:04.506Z,4.62
2018-12-06T02:18:04.494Z,4.59
2018-12-06T02:19:04.392Z,4.50
2018-12-06T02:20:04.334Z,4.53
2018-12-06T02:21:04.271Z,4.59
2018-12-06T02:22:04.214Z,4.56
2018-12-06T02:23:04.198Z,4.48
2018-12-06T02:24:04.100Z,4.55
2018-12-06T02:25:04.044Z,4.58
2018-12-06T02:26:03.987Z,4.56
2018-12-06T02:27:03.925Z,4.58
2018-12-06T02:28:03.900Z,4.59
2018-12-06T02:29:03.849Z,4.67
2018-12-06T02:30:03.775Z,4.60
2018-12-06T02:31:03.696Z,4.67
2018-12-06T02:32:03.637Z,4.58
2018-12-06T02:33:03.580Z,4.58
2018-12-06T02:34:03.520Z,4.42
2018-12-06T02:35:03.494Z,4.50
2018-12-06T02:36:03.404Z,4.52
2018-12-06T02:37:03.357Z,4.62
2018-12-06T02:38:03.292Z,4.53
2018-12-06T02:39:03.232Z,4.42
2018-12-06T02:40:03.204Z,4.48
2018-12-06T02:41:03.120Z,4.45
2018-12-06T02:42:03.061Z,4.45
2018-12-06T02:43:03.033Z,4.44
2018-12-06T02:44:02.973Z,4.45
2018-12-06T02:45:02.884Z,4.53
2018-12-06T02:46:02.826Z,4.55
2018-12-06T02:47:02.811Z,4.49
2018-12-06T02:48:02.716Z,4.48
2018-12-06T02:49:02.652Z,4.40
2018-12-06T02:50:02.593Z,4.41
2018-12-06T02:51:02.540Z,4.42
2018-12-06T02:52:02.522Z,4.38
2018-12-06T02:53:02.429Z,4.40
2018-12-06T02:54:02.364Z,4.34
2018-12-06T02:55:02.305Z,4.35
2018-12-06T02:56:02.249Z,4.31
2018-12-06T02:57:02.227Z,4.22
2018-12-06T02:58:02.138Z,4.23
2018-12-06T02:59:02.075Z,4.24
2018-12-06T03:00:02.017Z,4.28
2018-12-06T03:01:01.961Z,4.32
2018-12-06T03:02:01.936Z,4.30
2018-12-06T03:03:01.844Z,4.31
2018-12-06T03:04:01.816Z,4.28
2018-12-06T03:05:01.761Z,4.37
2018-12-06T03:06:01.670Z,4.31
2018-12-06T03:07:01.609Z,4.35
2018-12-06T03:08:01.551Z,4.34
2018-12-06T03:09:01.496Z,4.34
2018-12-06T03:10:01.470Z,4.40
2018-12-06T03:11:01.380Z,4.41
2018-12-06T03:12:01.320Z,4.37
2018-12-06T03:13:01.265Z,4.38
2018-12-06T03:14:01.210Z,4.40
2018-12-06T03:15:01.187Z,4.35
2018-12-06T03:16:01.091Z,4.26
2018-12-06T03:17:01.033Z,4.40
2018-12-06T03:18:00.975Z,4.32
2018-12-06T03:19:00.917Z,4.22
2018-12-06T03:20:00.892Z,4.28
2018-12-06T03:21:00.831Z,4.35
2018-12-06T03:22:00.743Z,4.28
2018-12-06T03:23:00.686Z,4.26
2018-12-06T03:24:00.627Z,4.35
2018-12-06T03:25:00.570Z,4.35
2018-12-06T03:26:00.562Z,4.28
2018-12-06T03:27:00.455Z,4.32
2018-12-06T03:28:00.396Z,4.26
2018-12-06T03:29:00.342Z,4.30
2018-12-06T03:30:00.289Z,4.32
2018-12-06T03:31:00.265Z,4.30
2018-12-06T03:32:00.164Z,4.32
2018-12-06T03:33:00.108Z,4.31
2018-12-06T03:34:00.045Z,4.31
2018-12-06T03:35:00.023Z,4.31
2018-12-06T03:35:59.937Z,4.26
2018-12-06T03:36:59.874Z,4.26
2018-12-06T03:37:59.818Z,4.32
2018-12-06T03:38:59.758Z,4.26
2018-12-06T03:39:59.726Z,4.32
2018-12-06T03:40:59.647Z,4.32
2018-12-06T03:41:59.620Z,4.28
2018-12-06T03:42:59.529Z,4.26
2018-12-06T03:43:59.468Z,4.31
2018-12-06T03:44:59.412Z,4.26
2018-12-06T03:45:59.355Z,4.30
2018-12-06T03:46:59.328Z,4.34
2018-12-06T03:47:59.241Z,4.31
2018-12-06T03:48:59.180Z,4.28
2018-12-06T03:49:59.123Z,4.23
2018-12-06T03:50:59.065Z,4.32
2018-12-06T03:51:59.039Z,4.28
2018-12-06T03:52:58.950Z,4.30
2018-12-06T03:53:58.891Z,4.32
2018-12-06T03:54:58.837Z,4.28
2018-12-06T03:55:58.776Z,4.30
2018-12-06T03:56:58.743Z,4.31
2018-12-06T03:57:58.662Z,4.38
2018-12-06T03:58:58.637Z,4.38
2018-12-06T03:59:58.542Z,4.28
2018-12-06T04:00:58.485Z,4.32
2018-12-06T04:01:58.464Z,4.35
2018-12-06T04:02:58.368Z,4.37
2018-12-06T04:03:58.430Z,4.38
2018-12-06T04:04:58.286Z,4.38
2018-12-06T04:05:58.198Z,4.40
2018-12-06T04:06:58.138Z,4.38
2018-12-06T04:07:58.082Z,4.40
2018-12-06T04:08:58.022Z,4.37
2018-12-06T04:09:57.996Z,4.37
2018-12-06T04:10:57.909Z,4.30
2018-12-06T04:11:57.887Z,4.37
2018-12-06T04:12:57.792Z,4.32
2018-12-06T04:13:57.733Z,4.31
2018-12-06T04:14:57.701Z,4.38
2018-12-06T04:15:57.619Z,4.40
2018-12-06T04:16:57.559Z,4.37
2018-12-06T04:17:57.500Z,4.35
2018-12-06T04:18:57.478Z,4.41
2018-12-06T04:19:57.387Z,4.40
2018-12-06T04:20:57.333Z,4.34
2018-12-06T04:21:57.304Z,4.41
2018-12-06T04:22:57.237Z,4.31
2018-12-06T04:23:57.154Z,4.28
2018-12-06T04:24:57.093Z,4.30
2018-12-06T04:25:57.038Z,4.31
2018-12-06T04:26:57.010Z,4.23
2018-12-06T04:27:56.924Z,4.30
2018-12-06T04:28:56.866Z,4.17
2018-12-06T04:29:56.807Z,4.26
2018-12-06T04:30:56.778Z,4.17
2018-12-06T04:31:56.692Z,4.19
2018-12-06T04:32:56.636Z,4.14
2018-12-06T04:33:56.573Z,4.14
2018-12-06T04:34:56.520Z,4.13
2018-12-06T04:35:56.483Z,4.17
2018-12-06T04:36:56.402Z,4.10
2018-12-06T04:37:56.343Z,4.17
2018-12-06T04:38:56.290Z,4.14
2018-12-06T04:39:56.228Z,4.12
2018-12-06T04:40:56.206Z,4.12
2018-12-06T04:41:56.115Z,4.12
2018-12-06T04:42:56.059Z,4.06
2018-12-06T04:43:55.996Z,3.91
2018-12-06T04:44:55.965Z,3.96
2018-12-06T04:45:55.886Z,3.91
2018-12-06T04:46:55.856Z,3.92
2018-12-06T04:47:55.763Z,4.01
2018-12-06T04:48:55.705Z,3.94
2018-12-06T04:49:55.706Z,3.95
2018-12-06T04:50:55.627Z,4.01
2018-12-06T04:51:55.533Z,3.91
2018-12-06T04:52:55.475Z,4.05
2018-12-06T04:53:55.427Z,3.96
2018-12-06T04:54:55.366Z,3.99
2018-12-06T04:55:55.334Z,4.05
2018-12-06T04:56:55.245Z,4.05
2018-12-06T04:57:55.187Z,4.01
2018-12-06T04:58:55.131Z,3.87
2018-12-06T04:59:55.105Z,4.01
2018-12-06T05:00:55.046Z,4.01
2018-12-06T05:01:54.955Z,3.91
2018-12-06T05:02:54.895Z,4.02
2018-12-06T05:03:54.877Z,3.92
2018-12-06T05:04:54.779Z,4.04
2018-12-06T05:05:54.722Z,4.06
2018-12-06T05:06:54.663Z,4.08
2018-12-06T05:07:54.607Z,4.01
2018-12-06T05:08:54.581Z,4.01
2018-12-06T05:09:54.522Z,3.96
2018-12-06T05:10:54.432Z,3.92
2018-12-06T05:11:54.372Z,3.88
2018-12-06T05:12:54.315Z,3.92
2018-12-06T05:13:54.258Z,3.92
2018-12-06T05:14:54.232Z,3.98
2018-12-06T05:15:54.141Z,4.06
2018-12-06T05:16:54.082Z,4.01
2018-12-06T05:17:54.024Z,3.98
2018-12-06T05:18:53.970Z,4.04
2018-12-06T05:19:53.940Z,4.01
2018-12-06T05:20:53.849Z,4.01
2018-12-06T05:21:53.794Z,3.91
2018-12-06T05:22:53.766Z,3.98
2018-12-06T05:23:53.676Z,3.91
2018-12-06T05:24:53.620Z,3.96
2018-12-06T05:25:53.558Z,3.96
2018-12-06T05:26:53.534Z,4.02
2018-12-06T05:27:53.484Z,3.96
2018-12-06T05:28:53.385Z,4.01
2018-12-06T05:29:53.330Z,4.04
2018-12-06T05:30:53.271Z,3.92
2018-12-06T05:31:53.216Z,4.04
2018-12-06T05:32:53.183Z,4.05
2018-12-06T05:33:53.099Z,4.08
2018-12-06T05:34:53.040Z,4.13
2018-12-06T05:35:52.978Z,4.06
2018-12-06T05:36:52.923Z,4.17
2018-12-06T05:37:52.913Z,4.19
2018-12-06T05:38:52.806Z,4.19
2018-12-06T05:39:52.751Z,4.20
2018-12-06T05:40:52.698Z,4.22
2018-12-06T05:41:52.635Z,4.10
2018-12-06T05:42:52.605Z,4.08
2018-12-06T05:43:52.516Z,4.14
2018-12-06T05:44:52.461Z,4.12
2018-12-06T05:45:52.399Z,4.23
2018-12-06T05:46:52.340Z,4.16
2018-12-06T05:47:52.315Z,4.06
2018-12-06T05:48:52.228Z,4.20
2018-12-06T05:49:52.204Z,4.17
2018-12-06T05:50:52.112Z,4.13
2018-12-06T05:51:52.055Z,4.12
2018-12-06T05:52:51.997Z,4.16
2018-12-06T05:53:51.967Z,4.06
2018-12-06T05:54:51.879Z,4.13
2018-12-06T05:55:51.819Z,4.10
2018-12-06T05:56:51.764Z,4.14
2018-12-06T05:57:51.744Z,4.13
2018-12-06T05:58:51.651Z,4.10
2018-12-06T05:59:51.597Z,4.06
2018-12-06T06:00:51.531Z,4.06
2018-12-06T06:01:51.476Z,4.10
2018-12-06T06:02:51.450Z,4.14
2018-12-06T06:03:51.357Z,4.14
2018-12-06T06:04:51.303Z,4.17
2018-12-06T06:05:51.275Z,4.23
2018-12-06T06:06:51.187Z,4.17
2018-12-06T06:07:51.126Z,4.22
2018-12-06T06:08:51.102Z,4.24
2018-12-06T06:09:51.011Z,4.16
2018-12-06T06:10:50.987Z,4.24
2018-12-06T06:11:50.895Z,4.05
2018-12-06T06:12:50.835Z,4.16
2018-12-06T06:13:50.822Z,4.26
2018-12-06T06:14:50.720Z,4.20
2018-12-06T06:15:50.662Z,4.12
2018-12-06T06:16:50.605Z,4.22
2018-12-06T06:17:50.555Z,4.20
2018-12-06T06:18:50.610Z,4.20
2018-12-06T06:19:50.433Z,4.12
2018-12-06T06:20:50.371Z,4.12
2018-12-06T06:21:50.316Z,4.13
2018-12-06T06:22:50.255Z,4.08
2018-12-06T06:23:50.240Z,4.12
2018-12-06T06:24:50.142Z,4.20
2018-12-06T06:25:50.083Z,4.16
2018-12-06T06:26:50.026Z,4.12
2018-12-06T06:27:49.969Z,4.16
2018-12-06T06:28:49.954Z,4.17
2018-12-06T06:29:49.853Z,4.20
2018-12-06T06:30:49.795Z,4.17
2018-12-06T06:31:49.738Z,4.14
2018-12-06T06:32:49.677Z,4.17
2018-12-06T06:33:49.672Z,4.16
2018-12-06T06:34:49.562Z,4.19
2018-12-06T06:35:49.504Z,4.17
2018-12-06T06:36:49.451Z,4.19
2018-12-06T06:37:49.390Z,4.19
2018-12-06T06:38:49.372Z,4.10
2018-12-06T06:39:49.275Z,4.16
2018-12-06T06:40:49.215Z,4.13
2018-12-06T06:41:49.164Z,4.16
2018-12-06T06:42:49.102Z,4.22
2018-12-06T06:43:49.076Z,4.19
2018-12-06T06:44:48.983Z,4.20
2018-12-06T06:45:48.924Z,4.14
2018-12-06T06:46:48.870Z,4.17
2018-12-06T06:47:48.811Z,4.17
2018-12-06T06:48:48.786Z,4.10
2018-12-06T06:49:48.709Z,4.26
2018-12-06T06:50:48.638Z,4.16
2018-12-06T06:51:48.580Z,4.30
2018-12-06T06:52:50.357Z,4.17
2018-12-06T06:53:48.465Z,4.34
2018-12-06T06:54:48.410Z,4.28
2018-12-06T06:55:48.346Z,4.24
2018-12-06T06:56:48.289Z,4.34
2018-12-06T06:57:48.262Z,4.28
2018-12-06T06:58:48.175Z,4.22
2018-12-06T06:59:48.119Z,4.26
2018-12-06T07:00:48.059Z,4.24
2018-12-06T07:01:47.999Z,4.24
2018-12-06T07:02:47.975Z,4.24
2018-12-06T07:03:47.883Z,4.20
2018-12-06T07:04:47.860Z,4.23
2018-12-06T07:05:47.768Z,4.30
2018-12-06T07:06:47.708Z,4.24
2018-12-06T07:07:47.686Z,4.30
2018-12-06T07:08:47.616Z,4.37
2018-12-06T07:09:47.576Z,4.34
2018-12-06T07:10:47.480Z,4.32
2018-12-06T07:11:47.423Z,4.31
2018-12-06T07:12:47.364Z,4.30
2018-12-06T07:13:47.308Z,4.30
2018-12-06T07:14:47.288Z,4.26
2018-12-06T07:15:47.187Z,4.28
2018-12-06T07:16:47.129Z,4.26
2018-12-06T07:17:47.072Z,4.35
2018-12-06T07:18:47.024Z,4.40
2018-12-06T07:19:47.000Z,4.41
2018-12-06T07:20:46.901Z,4.37
2018-12-06T07:21:46.843Z,4.32
2018-12-06T07:22:46.786Z,4.38
2018-12-06T07:23:46.730Z,4.35
2018-12-06T07:24:46.704Z,4.38
2018-12-06T07:25:46.738Z,4.37
2018-12-06T07:26:46.675Z,4.35
2018-12-06T07:27:46.492Z,4.32
2018-12-06T07:28:46.435Z,4.42
2018-12-06T07:29:46.414Z,4.37
2018-12-06T07:30:46.322Z,4.44
2018-12-06T07:31:46.263Z,4.41
2018-12-06T07:32:46.252Z,4.40
2018-12-06T07:33:46.149Z,4.38
2018-12-06T07:34:46.090Z,4.35
2018-12-06T07:35:46.035Z,4.38
2018-12-06T07:36:45.974Z,4.41
2018-12-06T07:37:45.948Z,4.44
2018-12-06T07:38:45.867Z,4.38
2018-12-06T07:39:45.804Z,4.44
2018-12-06T07:40:45.778Z,4.45
2018-12-06T07:41:45.686Z,4.44
2018-12-06T07:42:45.639Z,4.41
2018-12-06T07:43:45.574Z,4.42
2018-12-06T07:44:45.512Z,4.48
2018-12-06T07:45:45.485Z,4.41
2018-12-06T07:46:45.421Z,4.38
2018-12-06T07:47:45.361Z,4.38
2018-12-06T07:48:45.283Z,4.42
2018-12-06T07:49:45.224Z,4.45
2018-12-06T07:50:45.170Z,4.28
2018-12-06T07:51:45.109Z,4.34
2018-12-06T07:52:45.074Z,4.34
2018-12-06T07:53:44.997Z,4.32
2018-12-06T07:54:44.969Z,4.30
2018-12-06T07:55:44.876Z,4.44
2018-12-06T07:56:44.823Z,4.40
2018-12-06T07:57:44.831Z,4.34
2018-12-06T07:58:44.706Z,4.42
2018-12-06T07:59:44.677Z,4.37
2018-12-06T08:00:44.590Z,4.28
2018-12-06T08:01:44.532Z,4.26
2018-12-06T08:02:44.495Z,4.42
2018-12-06T08:03:44.415Z,4.40
2018-12-06T08:04:44.388Z,4.41
2018-12-06T08:05:44.303Z,4.41
2018-12-06T08:06:44.242Z,4.41
2018-12-06T08:07:44.183Z,4.41
2018-12-06T08:08:44.126Z,4.38
2018-12-06T08:09:44.101Z,4.32
2018-12-06T08:10:44.011Z,4.40
2018-12-06T08:11:43.979Z,4.35
2018-12-06T08:12:43.936Z,4.41
2018-12-06T08:13:43.841Z,4.38
2018-12-06T08:14:43.779Z,4.44
2018-12-06T08:15:43.724Z,4.35
2018-12-06T08:16:43.666Z,4.35
2018-12-06T08:17:43.641Z,4.40
2018-12-06T08:18:43.550Z,4.34
2018-12-06T08:19:43.526Z,4.38
2018-12-06T08:20:43.433Z,4.49
2018-12-06T08:21:43.376Z,4.37
2018-12-06T08:22:43.322Z,4.38
2018-12-06T08:23:43.261Z,4.41
2018-12-06T08:24:43.235Z,4.41
2018-12-06T08:25:43.145Z,4.37
2018-12-06T08:26:43.088Z,4.41
2018-12-06T08:27:43.034Z,4.35
2018-12-06T08:28:42.973Z,4.41
2018-12-06T08:29:42.951Z,4.44
2018-12-06T08:30:42.858Z,4.41
2018-12-06T08:31:42.798Z,4.45
2018-12-06T08:32:42.800Z,4.40
2018-12-06T08:33:42.688Z,4.41
2018-12-06T08:34:42.630Z,4.41
2018-12-06T08:35:42.567Z,4.38
2018-12-06T08:36:42.543Z,4.41
2018-12-06T08:37:42.453Z,4.44
2018-12-06T08:38:42.467Z,4.42
2018-12-06T08:39:42.342Z,4.42
2018-12-06T08:40:42.305Z,4.49
2018-12-06T08:41:42.227Z,4.41
2018-12-06T08:42:45.688Z,4.48
2018-12-06T08:43:42.145Z,4.45
2018-12-06T08:44:42.051Z,4.45
2018-12-06T08:45:41.995Z,4.49
2018-12-06T08:46:41.973Z,4.53
2018-12-06T08:47:41.879Z,4.52
2018-12-06T08:48:41.820Z,4.52
2018-12-06T08:49:41.761Z,4.55
2018-12-06T08:50:41.705Z,4.55
2018-12-06T08:51:41.680Z,4.50
2018-12-06T08:52:41.590Z,4.59
2018-12-06T08:53:41.531Z,4.60
2018-12-06T08:54:41.474Z,4.62
2018-12-06T08:55:41.450Z,4.56
2018-12-06T08:56:41.362Z,4.68
2018-12-06T08:57:41.305Z,4.67
2018-12-06T08:58:41.246Z,4.70
2018-12-06T08:59:41.188Z,4.77
2018-12-06T09:00:41.157Z,4.78
2018-12-06T09:01:41.095Z,4.82
2018-12-06T09:02:41.031Z,4.78
2018-12-06T09:03:40.959Z,4.84
2018-12-06T09:04:40.900Z,4.86
2018-12-06T09:05:40.894Z,4.87
2018-12-06T09:06:40.791Z,4.92
2018-12-06T09:07:40.732Z,4.89
2018-12-06T09:08:40.692Z,4.86
2018-12-06T09:09:40.611Z,5.04
2018-12-06T09:10:40.711Z,5.00
2018-12-06T09:11:40.534Z,5.14
2018-12-06T09:12:40.443Z,5.14
2018-12-06T09:13:40.391Z,5.15
2018-12-06T09:14:40.325Z,5.17
2018-12-06T09:15:40.268Z,5.14
2018-12-06T09:16:40.275Z,5.12
2018-12-06T09:17:40.158Z,5.18
2018-12-06T09:18:40.096Z,5.18
2018-12-06T09:19:40.038Z,5.26
2018-12-06T09:20:39.986Z,5.26
2018-12-06T09:21:39.956Z,5.28
2018-12-06T09:22:39.869Z,5.38
2018-12-06T09:23:39.811Z,5.44
2018-12-06T09:24:39.758Z,5.50
2018-12-06T09:25:39.698Z,5.48
2018-12-06T09:26:39.738Z,5.59
2018-12-06T09:27:39.583Z,5.59
2018-12-06T09:28:39.565Z,5.57
2018-12-06T09:29:39.472Z,5.50
2018-12-06T09:30:39.424Z,5.57
2018-12-06T09:31:39.387Z,5.56
2018-12-06T09:32:39.297Z,5.57
2018-12-06T09:33:39.242Z,5.64
2018-12-06T09:34:39.185Z,5.59
2018-12-06T09:35:40.676Z,5.80
2018-12-06T09:36:39.145Z,5.68
2018-12-06T09:37:39.043Z,5.68
2018-12-06T09:38:38.963Z,5.64
2018-12-06T09:39:38.901Z,5.76
2018-12-06T09:40:38.843Z,5.65
2018-12-06T09:41:38.829Z,5.62
2018-12-06T09:42:38.729Z,5.73
2018-12-06T09:43:38.671Z,5.73
2018-12-06T09:44:38.618Z,5.72
2018-12-06T09:45:38.563Z,5.84
2018-12-06T09:46:38.543Z,5.82
2018-12-06T09:47:38.481Z,5.83
2018-12-06T09:48:38.402Z,5.83
2018-12-06T09:49:38.334Z,5.84
2018-12-06T09:50:38.307Z,5.84
2018-12-06T09:51:38.256Z,5.76
2018-12-06T09:52:38.165Z,5.89
2018-12-06T09:53:38.108Z,5.84
2018-12-06T09:54:38.053Z,5.80
2018-12-06T09:55:38.026Z,5.80
2018-12-06T09:56:37.936Z,5.80
2018-12-06T09:57:37.964Z,5.86
2018-12-06T09:58:37.831Z,5.84
2018-12-06T09:59:37.768Z,5.94
2018-12-06T10:00:37.748Z,5.90
2018-12-06T10:01:37.656Z,5.98
2018-12-06T10:02:37.599Z,5.89
2018-12-06T10:03:37.548Z,5.98
2018-12-06T10:04:37.505Z,5.98
2018-12-06T10:05:37.460Z,6.01
2018-12-06T10:06:37.373Z,5.86
2018-12-06T10:07:37.360Z,5.94
2018-12-06T10:08:37.288Z,6.07
2018-12-06T10:09:37.201Z,5.94
2018-12-06T10:10:37.178Z,6.01
2018-12-06T10:11:37.091Z,6.01
2018-12-06T10:12:37.073Z,6.04
2018-12-06T10:13:36.978Z,6.07
2018-12-06T10:14:36.922Z,6.02
2018-12-06T10:15:36.895Z,6.07
2018-12-06T10:16:36.821Z,6.02
2018-12-06T10:17:36.785Z,6.11
2018-12-06T10:18:36.697Z,6.16
2018-12-06T10:19:36.634Z,6.16
2018-12-06T10:20:36.583Z,6.16
2018-12-06T10:21:36.560Z,6.11
2018-12-06T10:22:36.466Z,6.07
2018-12-06T10:23:36.409Z,6.17
2018-12-06T10:24:36.389Z,6.17
2018-12-06T10:25:36.304Z,6.16
2018-12-06T10:26:36.266Z,6.30
2018-12-06T10:27:36.185Z,6.30
2018-12-06T10:28:36.133Z,6.36
2018-12-06T10:29:36.073Z,6.39
2018-12-06T10:30:36.025Z,6.28
2018-12-06T10:31:35.993Z,6.36
2018-12-06T10:32:35.905Z,6.38
2018-12-06T10:33:35.855Z,6.42
2018-12-06T10:34:35.791Z,6.42
2018-12-06T10:35:35.733Z,6.48
2018-12-06T10:36:35.759Z,6.33
2018-12-06T10:37:35.623Z,6.36
2018-12-06T10:38:35.565Z,6.36
2018-12-06T10:39:35.517Z,6.39
2018-12-06T10:40:35.491Z,6.42
2018-12-06T10:41:35.400Z,6.27
2018-12-06T10:42:35.340Z,6.31
2018-12-06T10:43:35.316Z,6.24
2018-12-06T10:44:35.228Z,6.38
2018-12-06T10:45:35.176Z,6.22
2018-12-06T10:46:35.148Z,6.36
2018-12-06T10:47:35.061Z,6.27
2018-12-06T10:48:35.039Z,6.17
2018-12-06T10:49:34.956Z,6.24
2018-12-06T10:50:34.898Z,6.27
2018-12-06T10:51:34.837Z,6.30
2018-12-06T10:52:34.780Z,6.27
2018-12-06T10:53:34.755Z,6.22
2018-12-06T10:54:34.670Z,6.24
2018-12-06T10:55:34.636Z,6.35
2018-12-06T10:56:34.555Z,6.45
2018-12-06T10:57:34.496Z,6.44
2018-12-06T10:58:34.477Z,6.39
2018-12-06T10:59:34.389Z,6.44
2018-12-06T11:00:34.329Z,6.26
2018-12-06T11:01:34.352Z,6.42
2018-12-06T11:02:34.265Z,6.38
2018-12-06T11:03:34.162Z,6.26
2018-12-06T11:04:34.106Z,6.24
2018-12-06T11:05:34.052Z,6.27
2018-12-06T11:06:33.995Z,6.24
2018-12-06T11:07:33.980Z,6.30
2018-12-06T11:08:33.884Z,6.31
2018-12-06T11:09:33.824Z,6.22
2018-12-06T11:10:33.770Z,6.28
2018-12-06T11:11:33.715Z,6.31
2018-12-06T11:12:33.828Z,6.45
2018-12-06T11:13:33.602Z,6.41
2018-12-06T11:14:33.546Z,6.38
2018-12-06T11:15:33.489Z,6.38
2018-12-06T11:16:33.432Z,6.44
2018-12-06T11:17:33.414Z,6.36
2018-12-06T11:18:33.319Z,6.45
2018-12-06T11:19:33.262Z,6.45
2018-12-06T11:20:33.209Z,6.45
2018-12-06T11:21:33.151Z,6.44
2018-12-06T11:22:33.133Z,6.46
2018-12-06T11:23:33.072Z,6.46
2018-12-06T11:24:32.982Z,6.57
2018-12-06T11:25:32.929Z,6.49
2018-12-06T11:26:32.872Z,6.49
2018-12-06T11:27:32.819Z,6.48
2018-12-06T11:28:32.791Z,6.48
2018-12-06T11:29:32.708Z,6.57
2018-12-06T11:30:32.649Z,6.51
2018-12-06T11:31:32.595Z,6.54
2018-12-06T11:32:32.547Z,6.62
2018-12-06T11:33:32.514Z,6.60
2018-12-06T11:34:32.424Z,6.60
2018-12-06T11:35:32.367Z,6.59
2018-12-06T11:36:32.316Z,6.64
2018-12-06T11:37:32.262Z,6.67
2018-12-06T11:38:32.233Z,6.70
2018-12-06T11:39:32.145Z,6.69
2018-12-06T11:40:32.088Z,6.70
2018-12-06T11:41:32.031Z,6.66
2018-12-06T11:42:32.008Z,6.60
2018-12-06T11:43:31.922Z,6.70
2018-12-06T11:44:31.863Z,6.64
2018-12-06T11:45:31.807Z,6.75
2018-12-06T11:46:31.753Z,6.77
2018-12-06T11:47:31.729Z,6.79
2018-12-06T11:48:31.672Z,6.74
2018-12-06T11:49:31.588Z,6.85
2018-12-06T11:50:31.528Z,6.88
2018-12-06T11:51:31.504Z,6.85
2018-12-06T11:52:31.417Z,6.88
2018-12-06T11:53:31.407Z,6.92
2018-12-06T11:54:31.311Z,6.99
2018-12-06T11:55:31.334Z,7.02
2018-12-06T11:56:31.192Z,7.06
2018-12-06T11:57:31.139Z,7.05
2018-12-06T11:58:31.121Z,7.14
2018-12-06T11:59:31.027Z,7.18
2018-12-06T12:00:30.970Z,7.21
2018-12-06T12:01:30.920Z,7.21
2018-12-06T12:02:30.897Z,7.25
2018-12-06T12:03:30.809Z,7.36
2018-12-06T12:04:30.754Z,7.35
2018-12-06T12:05:30.698Z,7.35
2018-12-06T12:06:30.679Z,7.43
2018-12-06T12:07:30.584Z,7.47
2018-12-06T12:08:30.529Z,7.54
2018-12-06T12:09:30.474Z,7.50
2018-12-06T12:10:30.416Z,7.57
2018-12-06T12:11:30.396Z,7.57
2018-12-06T12:12:30.308Z,7.54
2018-12-06T12:13:30.251Z,7.58
2018-12-06T12:14:30.196Z,7.57
2018-12-06T12:15:30.142Z,7.66
2018-12-06T12:16:30.116Z,7.72
2018-12-06T12:17:30.029Z,7.54
2018-12-06T12:18:29.974Z,7.57
2018-12-06T12:19:29.919Z,7.60
2018-12-06T12:20:29.863Z,7.54
2018-12-06T12:21:29.835Z,7.67
2018-12-06T12:22:29.752Z,7.67
2018-12-06T12:23:29.697Z,7.63
2018-12-06T12:24:29.640Z,7.75
2018-12-06T12:25:29.590Z,7.76
2018-12-06T12:26:29.563Z,7.76
2018-12-06T12:27:29.476Z,7.82
2018-12-06T12:28:29.419Z,7.79
2018-12-06T12:29:29.379Z,7.80
2018-12-06T12:30:29.310Z,7.76
2018-12-06T12:31:29.287Z,7.76
2018-12-06T12:32:29.201Z,7.77
2018-12-06T12:33:29.144Z,7.80
2018-12-06T12:34:29.088Z,7.72
2018-12-06T12:35:29.032Z,7.80
2018-12-06T12:36:29.009Z,7.76
2018-12-06T12:37:28.925Z,7.82
2018-12-06T12:38:28.873Z,7.76
2018-12-06T12:39:28.812Z,7.75
2018-12-06T12:40:28.756Z,7.79
2018-12-06T12:41:28.731Z,7.79
2018-12-06T12:42:28.650Z,7.82
2018-12-06T12:43:28.597Z,7.76
2018-12-06T12:44:28.572Z,7.76
2018-12-06T12:45:28.479Z,7.73
2018-12-06T12:46:28.431Z,7.73
2018-12-06T12:47:28.368Z,7.75
2018-12-06T12:48:28.352Z,7.75
2018-12-06T12:49:28.264Z,7.72
2018-12-06T12:50:28.206Z,7.57
2018-12-06T12:51:28.148Z,7.54
2018-12-06T12:52:28.101Z,7.60
2018-12-06T12:53:28.075Z,7.60
2018-12-06T12:54:27.985Z,7.63
2018-12-06T12:55:27.933Z,7.56
2018-12-06T12:56:27.875Z,7.48
2018-12-06T12:57:27.824Z,7.50
2018-12-06T12:58:27.790Z,7.48
2018-12-06T12:59:27.708Z,7.45
2018-12-06T13:00:27.658Z,7.47
2018-12-06T13:01:27.600Z,7.40
2018-12-06T13:02:27.543Z,7.31
2018-12-06T13:03:27.522Z,7.35
2018-12-06T13:04:27.434Z,7.35
2018-12-06T13:05:27.380Z,7.28
2018-12-06T13:06:27.356Z,7.20
2018-12-06T13:07:27.274Z,7.24
2018-12-06T13:08:27.251Z,7.36
2018-12-06T13:09:27.163Z,7.35
2018-12-06T13:10:27.105Z,7.32
2018-12-06T13:11:27.051Z,7.38
2018-12-06T13:12:26.994Z,7.32
2018-12-06T13:13:26.972Z,7.32
2018-12-06T13:14:26.891Z,7.42
2018-12-06T13:15:26.826Z,7.29
2018-12-06T13:16:26.785Z,7.35
2018-12-06T13:17:26.714Z,7.36